Time;durP1;ratioP1;P1;durP2;ratioP2;P2;SDS_P1;SDS_P2;PMS_P1;PMS_P2;Temp;Humidity;BMP_temperature;BMP_pressure;BME280_temperature;BME280_humidity;BME280_pressure;Samples;Min_cycle;Max_cycle;Signal;HPM_P1;HPM_P2
2021/05/20 00:01:48;;;;;;;3.20;0.30;;;11.10;64.00;;;;;;5017323;28;20030;-72
2021/05/20 00:04:14;;;;;;;0.52;0.20;;;11.10;65.40;;;;;;5017359;28;20022;-72
2021/05/20 00:06:40;;;;;;;0.63;0.28;;;11.10;64.20;;;;;;5017315;28;20025;-72
2021/05/20 00:09:06;;;;;;;0.63;0.30;;;11.10;63.70;;;;;;5016937;28;20029;-72
2021/05/20 00:11:32;;;;;;;0.22;0.10;;;11.10;61.30;;;;;;5017233;28;20022;-72
2021/05/20 00:13:58;;;;;;;1.38;0.32;;;11.20;60.70;;;;;;5017219;28;20361;-72
2021/05/20 00:16:24;;;;;;;0.40;0.10;;;11.40;61.30;;;;;;5017128;28;20104;-72
2021/05/20 00:18:50;;;;;;;0.10;0.10;;;11.50;61.00;;;;;;5016898;28;20045;-72
2021/05/20 00:21:15;;;;;;;0.35;0.20;;;11.50;60.10;;;;;;5016832;28;20026;-72
2021/05/20 00:23:41;;;;;;;0.10;0.10;;;11.60;60.50;;;;;;5017191;28;20026;-72
2021/05/20 00:26:12;;;;;;;1.60;0.35;;;11.60;58.70;;;;;;5017141;28;20026;-72
2021/05/20 00:28:38;;;;;;;0.30;0.20;;;11.60;59.50;;;;;;5016666;28;20136;-72
2021/05/20 00:31:03;;;;;;;1.55;0.40;;;11.60;59.60;;;;;;5016710;28;20030;-72
2021/05/20 00:33:29;;;;;;;0.43;0.13;;;11.70;60.40;;;;;;5019153;28;20033;-71
2021/05/20 00:35:55;;;;;;;0.47;0.20;;;11.60;57.80;;;;;;5020853;28;20050;-72
2021/05/20 00:38:20;;;;;;;0.70;0.20;;;11.60;59.50;;;;;;5021023;28;20030;-72
2021/05/20 00:40:46;;;;;;;0.45;0.25;;;11.60;59.30;;;;;;5020623;28;20042;-72
2021/05/20 00:43:12;;;;;;;0.43;0.20;;;11.60;59.40;;;;;;5020969;28;20025;-71
2021/05/20 00:45:37;;;;;;;0.35;0.20;;;11.70;57.40;;;;;;5020799;28;20030;-71
2021/05/20 00:48:03;;;;;;;0.30;0.13;;;11.80;56.60;;;;;;5020525;28;20030;-72
2021/05/20 00:50:29;;;;;;;0.32;0.10;;;11.80;57.30;;;;;;5020398;28;20084;-71
2021/05/20 00:52:55;;;;;;;0.55;0.17;;;11.80;55.60;;;;;;5020475;28;20034;-72
2021/05/20 00:55:23;;;;;;;0.50;0.20;;;11.80;54.30;;;;;;5020598;28;20034;-72
2021/05/20 00:57:52;;;;;;;2.88;0.30;;;11.80;58.80;;;;;;5020611;28;20092;-72
2021/05/20 01:00:20;;;;;;;0.70;0.20;;;11.70;57.00;;;;;;5020572;28;20037;-71
2021/05/20 01:02:46;;;;;;;0.10;0.10;;;11.60;56.60;;;;;;5020578;28;20030;-72
2021/05/20 01:05:13;;;;;;;0.32;0.20;;;11.50;59.10;;;;;;5020173;28;20322;-72
2021/05/20 01:07:39;;;;;;;1.33;0.28;;;11.70;57.90;;;;;;5020128;28;20036;-72
2021/05/20 01:10:07;;;;;;;0.10;0.10;;;11.70;56.90;;;;;;5020139;28;20129;-72
2021/05/20 01:12:33;;;;;;;0.22;0.10;;;11.70;58.60;;;;;;5020490;28;20038;-71
2021/05/20 01:14:58;;;;;;;0.90;0.20;;;11.60;56.30;;;;;;5019937;28;20030;-72
2021/05/20 01:17:27;;;;;;;1.17;0.20;;;11.70;57.40;;;;;;5020244;28;20032;-71
2021/05/20 01:19:54;;;;;;;1.83;0.15;;;11.70;59.30;;;;;;5019901;28;20026;-72
2021/05/20 01:22:20;;;;;;;0.43;0.40;;;11.70;57.90;;;;;;5019916;28;20034;-71
2021/05/20 01:24:46;;;;;;;0.43;0.20;;;11.70;58.30;;;;;;5020095;28;20033;-71
2021/05/20 01:27:14;;;;;;;0.35;0.20;;;11.70;56.90;;;;;;5019585;28;20367;-72
2021/05/20 01:29:42;;;;;;;0.13;0.10;;;11.80;58.00;;;;;;5018882;28;20045;-71
2021/05/20 01:32:08;;;;;;;0.20;0.20;;;11.80;56.80;;;;;;5018796;28;20322;-71
2021/05/20 01:34:35;;;;;;;0.85;0.20;;;11.90;55.80;;;;;;5018671;28;20105;-71
2021/05/20 01:37:02;;;;;;;2.30;0.30;;;12.00;54.70;;;;;;5018754;28;20406;-71
2021/05/20 01:39:28;;;;;;;0.22;0.20;;;12.10;55.50;;;;;;5018741;28;20014;-71
2021/05/20 01:41:54;;;;;;;0.70;0.28;;;12.10;55.30;;;;;;5018604;28;20374;-71
2021/05/20 01:44:21;;;;;;;0.82;0.28;;;12.10;56.60;;;;;;5017900;28;20033;-71
2021/05/20 01:46:47;;;;;;;0.45;0.20;;;12.10;55.90;;;;;;5018573;28;20079;-71
2021/05/20 01:49:13;;;;;;;0.20;0.20;;;12.10;55.50;;;;;;5018882;28;20335;-71
2021/05/20 01:51:42;;;;;;;0.47;0.20;;;12.00;56.10;;;;;;5018253;28;20410;-71
2021/05/20 01:54:08;;;;;;;0.50;0.20;;;12.00;55.50;;;;;;5018275;28;20028;-71
2021/05/20 01:56:36;;;;;;;0.40;0.20;;;11.90;55.90;;;;;;5018185;28;20041;-71
2021/05/20 01:59:10;;;;;;;0.40;0.20;;;11.90;54.60;;;;;;5018143;28;20111;-71
2021/05/20 02:01:36;;;;;;;0.10;0.10;;;11.90;55.30;;;;;;5018115;28;20049;-71
2021/05/20 02:04:02;;;;;;;0.35;0.20;;;11.80;55.10;;;;;;5018357;28;20069;-71
2021/05/20 02:06:28;;;;;;;1.73;0.30;;;11.90;53.90;;;;;;5018338;28;20366;-71
2021/05/20 02:08:54;;;;;;;0.88;0.85;;;12.00;55.10;;;;;;5017970;28;20018;-71
2021/05/20 02:11:20;;;;;;;1.90;0.20;;;12.00;53.10;;;;;;5018214;28;20030;-71
2021/05/20 02:13:46;;;;;;;2.17;0.10;;;12.00;55.10;;;;;;5018174;28;20025;-71
2021/05/20 02:16:11;;;;;;;1.35;0.30;;;12.00;55.80;;;;;;5018117;28;20362;-71
2021/05/20 02:18:38;;;;;;;0.55;0.25;;;12.00;54.10;;;;;;5017859;28;20026;-71
2021/05/20 02:21:05;;;;;;;0.38;0.10;;;12.00;54.70;;;;;;5018060;28;20030;-71
2021/05/20 02:23:31;;;;;;;0.75;0.20;;;11.90;54.80;;;;;;5017812;28;20022;-71
2021/05/20 02:25:58;;;;;;;0.38;0.13;;;11.90;54.20;;;;;;5018029;28;20429;-71
2021/05/20 02:28:24;;;;;;;0.20;0.17;;;11.80;54.40;;;;;;4994429;28;691707;-71
2021/05/20 02:30:49;;;;;;;0.30;0.10;;;11.80;53.50;;;;;;5018888;28;20319;-71
2021/05/20 02:33:15;;;;;;;0.30;0.20;;;11.90;51.60;;;;;;5018998;28;20075;-71
2021/05/20 02:35:42;;;;;;;1.38;0.38;;;12.10;52.00;;;;;;5018327;28;20029;-71
2021/05/20 02:38:07;;;;;;;0.40;0.20;;;12.10;52.90;;;;;;5018788;28;20096;-71
2021/05/20 02:40:34;;;;;;;0.28;0.20;;;12.20;52.70;;;;;;5018383;28;20136;-71
2021/05/20 02:43:01;;;;;;;0.55;0.10;;;12.00;52.30;;;;;;5018714;28;20025;-71
2021/05/20 02:45:27;;;;;;;0.65;0.25;;;12.00;54.00;;;;;;5018267;28;20029;-71
2021/05/20 02:47:53;;;;;;;0.95;0.20;;;11.90;53.10;;;;;;5018638;28;20393;-71
2021/05/20 02:50:22;;;;;;;0.43;0.28;;;11.90;54.00;;;;;;5018550;28;20026;-71
2021/05/20 02:52:47;;;;;;;0.57;0.10;;;11.90;54.50;;;;;;5018254;28;20080;-71
2021/05/20 02:55:23;;;;;;;0.45;0.20;;;11.80;54.70;;;;;;5017604;28;20026;-71
2021/05/20 02:57:53;;;;;;;0.10;0.10;;;11.80;54.20;;;;;;5018149;28;20038;-71
2021/05/20 03:00:20;;;;;;;0.30;0.17;;;11.70;54.50;;;;;;5018405;28;20032;-71
2021/05/20 03:02:50;;;;;;;0.25;0.10;;;11.60;55.10;;;;;;5018337;28;20030;-71
2021/05/20 03:05:17;;;;;;;0.55;0.20;;;11.60;54.20;;;;;;5017947;28;20097;-71
2021/05/20 03:07:43;;;;;;;1.00;0.30;;;11.60;54.30;;;;;;5017883;28;20033;-71
2021/05/20 03:10:10;;;;;;;0.75;0.30;;;11.60;53.50;;;;;;5018438;28;20030;-71
2021/05/20 03:12:36;;;;;;;0.32;0.20;;;11.70;52.70;;;;;;5017854;28;20030;-71
2021/05/20 03:15:03;;;;;;;0.30;0.13;;;11.80;52.10;;;;;;5017953;28;20037;-71
2021/05/20 03:17:29;;;;;;;0.85;0.35;;;11.80;52.90;;;;;;5018061;28;20300;-71
2021/05/20 03:19:55;;;;;;;0.57;0.20;;;11.90;53.00;;;;;;5017997;28;20071;-71
2021/05/20 03:22:22;;;;;;;0.20;0.17;;;11.90;53.90;;;;;;5018044;28;20054;-71
2021/05/20 03:24:50;;;;;;;1.20;0.52;;;11.90;54.20;;;;;;5017704;28;20330;-71
2021/05/20 03:27:19;;;;;;;0.20;0.20;;;12.00;51.80;;;;;;5017355;28;20111;-71
2021/05/20 03:29:45;;;;;;;2.58;0.22;;;12.00;54.50;;;;;;5017597;28;20022;-71
2021/05/20 03:32:11;;;;;;;2.60;0.20;;;11.80;53.60;;;;;;5017805;28;20029;-71
2021/05/20 03:34:37;;;;;;;0.43;0.20;;;11.90;52.80;;;;;;5017338;28;20022;-71
2021/05/20 03:37:03;;;;;;;0.40;0.30;;;11.90;52.40;;;;;;5017432;28;20018;-71
2021/05/20 03:39:31;;;;;;;0.90;0.20;;;11.70;55.40;;;;;;5017352;28;20026;-71
2021/05/20 03:41:56;;;;;;;0.57;0.20;;;11.70;53.10;;;;;;5017635;28;20294;-71
2021/05/20 03:44:22;;;;;;;0.40;0.15;;;11.70;52.30;;;;;;5017288;28;20036;-71
2021/05/20 03:46:48;;;;;;;0.65;0.20;;;11.80;51.60;;;;;;5017273;28;20076;-71
2021/05/20 03:49:13;;;;;;;0.52;0.20;;;11.70;53.90;;;;;;5017618;28;20057;-71
2021/05/20 03:51:39;;;;;;;1.10;0.20;;;11.60;52.70;;;;;;5017488;28;20092;-71
2021/05/20 03:54:05;;;;;;;0.45;0.20;;;11.60;55.10;;;;;;5017183;28;20044;-71
2021/05/20 03:56:31;;;;;;;1.17;0.20;;;11.50;50.90;;;;;;5017360;28;20061;-71
2021/05/20 03:58:57;;;;;;;2.35;0.22;;;11.60;54.60;;;;;;5017407;28;20018;-71
2021/05/20 04:01:22;;;;;;;0.20;0.10;;;11.50;56.50;;;;;;5017396;28;20022;-71
2021/05/20 04:03:48;;;;;;;0.65;0.20;;;11.50;52.10;;;;;;5017052;28;20104;-71
2021/05/20 04:06:14;;;;;;;0.60;0.20;;;11.70;48.60;;;;;;5016906;28;20029;-71
2021/05/20 04:08:39;;;;;;;0.68;0.10;;;11.80;55.90;;;;;;5017269;28;20153;-71
2021/05/20 04:11:05;;;;;;;0.10;0.10;;;11.70;57.50;;;;;;5017247;28;20037;-71
2021/05/20 04:13:42;;;;;;;0.30;0.10;;;11.40;56.70;;;;;;5017578;28;20026;-71
2021/05/20 04:16:09;;;;;;;0.20;0.10;;;11.30;56.30;;;;;;5016793;28;20464;-71
2021/05/20 04:18:35;;;;;;;0.55;0.20;;;11.10;61.80;;;;;;5017213;28;20025;-71
2021/05/20 04:21:01;;;;;;;0.20;0.20;;;10.80;54.10;;;;;;5016836;28;20483;-71
2021/05/20 04:23:28;;;;;;;0.20;0.10;;;10.90;54.70;;;;;;5016857;28;20032;-71
2021/05/20 04:25:54;;;;;;;3.08;0.20;;;11.00;56.10;;;;;;5017188;28;20034;-71
2021/05/20 04:28:21;;;;;;;0.60;0.20;;;11.10;57.20;;;;;;5016550;28;20050;-71
2021/05/20 04:30:48;;;;;;;0.70;0.20;;;11.00;58.20;;;;;;5017030;28;20037;-71
2021/05/20 04:33:14;;;;;;;1.17;0.25;;;10.90;54.80;;;;;;5016739;28;20034;-71
2021/05/20 04:35:40;;;;;;;0.50;0.20;;;11.10;56.00;;;;;;5016861;28;20160;-71
2021/05/20 04:38:07;;;;;;;1.15;0.30;;;11.40;56.20;;;;;;5016709;28;20018;-71
2021/05/20 04:40:35;;;;;;;2.85;1.25;;;11.40;61.00;;;;;;5016916;28;20018;-71
2021/05/20 04:43:01;;;;;;;2.60;1.40;;;11.20;63.70;;;;;;5016978;28;20022;-71
2021/05/20 04:45:27;;;;;;;1.05;0.40;;;11.10;59.50;;;;;;5017072;28;20030;-71
2021/05/20 04:47:53;;;;;;;0.98;0.40;;;11.10;55.90;;;;;;5016899;28;20026;-71
2021/05/20 04:50:20;;;;;;;3.72;1.15;;;11.30;52.90;;;;;;5016882;28;20115;-71
2021/05/20 04:52:46;;;;;;;10.52;5.15;;;11.40;59.30;;;;;;5016884;28;20407;-71
2021/05/20 04:55:14;;;;;;;13.05;5.88;;;11.50;63.40;;;;;;5016568;28;20034;-71
2021/05/20 04:57:40;;;;;;;3.88;2.00;;;11.40;63.40;;;;;;5016474;28;20026;-71
2021/05/20 05:00:08;;;;;;;2.60;0.70;;;11.40;59.80;;;;;;5016792;28;20084;-71
2021/05/20 05:02:34;;;;;;;1.80;0.88;;;11.50;55.30;;;;;;5016451;28;20026;-71
2021/05/20 05:05:01;;;;;;;0.40;0.20;;;11.60;58.70;;;;;;5016701;28;20096;-71
2021/05/20 05:07:26;;;;;;;0.50;0.20;;;11.80;54.40;;;;;;5016419;28;20030;-71
2021/05/20 05:09:52;;;;;;;0.95;0.50;;;12.00;59.00;;;;;;5016691;28;20033;-71
2021/05/20 05:12:18;;;;;;;0.70;0.30;;;12.10;61.20;;;;;;5016736;28;20029;-71
2021/05/20 05:14:44;;;;;;;0.60;0.25;;;12.10;62.40;;;;;;5016556;28;20056;-71
2021/05/20 05:17:10;;;;;;;0.30;0.13;;;12.20;55.20;;;;;;5016360;28;20426;-71
2021/05/20 05:19:36;;;;;;;1.40;0.20;;;12.50;52.60;;;;;;5018657;28;20025;-71
2021/05/20 05:22:04;;;;;;;0.93;0.13;;;12.70;53.30;;;;;;5019919;28;20032;-71
2021/05/20 05:24:30;;;;;;;0.68;0.20;;;12.90;48.50;;;;;;5019812;28;20029;-71
2021/05/20 05:26:57;;;;;;;2.10;0.20;;;13.10;49.40;;;;;;5019698;28;20419;-71
2021/05/20 05:29:23;;;;;;;0.10;0.10;;;13.20;50.20;;;;;;5020139;28;20064;-72
2021/05/20 05:31:49;;;;;;;0.98;0.20;;;13.20;50.80;;;;;;5019674;28;20073;-71
2021/05/20 05:34:15;;;;;;;0.50;0.20;;;13.10;49.20;;;;;;5019632;28;20033;-72
2021/05/20 05:36:41;;;;;;;0.57;0.20;;;13.20;52.00;;;;;;5019969;28;20029;-71
2021/05/20 05:39:07;;;;;;;0.60;0.20;;;13.30;55.10;;;;;;5019634;28;20030;-71
2021/05/20 05:41:33;;;;;;;0.43;0.30;;;13.40;59.00;;;;;;5019816;28;20033;-72
2021/05/20 05:43:59;;;;;;;1.15;0.25;;;13.40;62.00;;;;;;5019827;28;20092;-72
2021/05/20 05:46:24;;;;;;;0.30;0.20;;;13.50;59.70;;;;;;5019536;28;20359;-72
2021/05/20 05:48:51;;;;;;;2.58;0.40;;;13.70;62.00;;;;;;5019760;28;20116;-72
2021/05/20 05:51:19;;;;;;;4.18;0.50;;;13.70;63.20;;;;;;5019630;28;20366;-72
2021/05/20 05:53:45;;;;;;;3.70;0.30;;;13.60;64.90;;;;;;5019647;28;20033;-72
2021/05/20 05:56:10;;;;;;;0.43;0.30;;;13.60;64.10;;;;;;5019569;28;20406;-72
2021/05/20 05:58:36;;;;;;;3.28;1.35;;;13.80;66.00;;;;;;5019232;28;20030;-72
2021/05/20 06:01:03;;;;;;;0.98;0.50;;;13.70;65.80;;;;;;5019145;28;20022;-72
2021/05/20 06:03:29;;;;;;;2.25;0.50;;;13.90;65.70;;;;;;5019474;28;20034;-72
2021/05/20 06:05:55;;;;;;;1.58;0.70;;;14.00;65.80;;;;;;5019356;28;20026;-72
2021/05/20 06:08:21;;;;;;;1.30;0.50;;;14.20;72.70;;;;;;5019376;28;20030;-72
2021/05/20 06:10:47;;;;;;;3.13;0.60;;;14.50;66.90;;;;;;5019278;28;20426;-72
2021/05/20 06:13:13;;;;;;;1.52;0.80;;;14.70;67.50;;;;;;5019317;28;20398;-72
2021/05/20 06:15:39;;;;;;;3.13;0.50;;;14.80;69.00;;;;;;5018758;28;20022;-72
2021/05/20 06:18:04;;;;;;;2.78;0.57;;;15.30;65.80;;;;;;5019192;28;20032;-72
2021/05/20 06:20:30;;;;;;;2.53;0.70;;;15.90;62.90;;;;;;5018775;28;20033;-72
2021/05/20 06:22:56;;;;;;;1.13;0.60;;;16.50;63.20;;;;;;5019401;28;20026;-72
2021/05/20 06:25:23;;;;;;;1.05;0.60;;;17.20;61.40;;;;;;5018927;28;20461;-72
2021/05/20 06:27:50;;;;;;;2.13;0.73;;;17.70;60.60;;;;;;5018709;28;20065;-72
2021/05/20 06:30:16;;;;;;;1.17;0.68;;;18.30;59.00;;;;;;5017637;28;20029;-72
2021/05/20 06:32:42;;;;;;;1.30;0.68;;;18.50;59.20;;;;;;5018509;28;20029;-72
2021/05/20 06:35:08;;;;;;;2.22;1.10;;;18.90;59.20;;;;;;5018749;28;20072;-72
2021/05/20 06:37:34;;;;;;;2.97;0.80;;;19.20;57.60;;;;;;5018482;28;20060;-72
2021/05/20 06:40:00;;;;;;;1.85;0.90;;;19.60;57.90;;;;;;5018465;28;20030;-72
2021/05/20 06:42:26;;;;;;;2.08;0.60;;;20.10;57.10;;;;;;5018755;28;20033;-72
2021/05/20 06:44:52;;;;;;;5.28;1.20;;;20.60;56.20;;;;;;5018338;28;20319;-70
2021/05/20 06:47:17;;;;;;;2.28;0.80;;;21.10;57.80;;;;;;5018350;28;20109;-70
2021/05/20 06:49:43;;;;;;;4.15;1.00;;;21.50;57.50;;;;;;5018614;28;20018;-72
2021/05/20 06:52:09;;;;;;;2.42;1.20;;;21.60;56.50;;;;;;5018585;28;20404;-70
2021/05/20 06:54:35;;;;;;;1.60;1.00;;;21.10;58.20;;;;;;5018065;28;20422;-70
2021/05/20 06:57:06;;;;;;;4.00;1.25;;;21.40;58.50;;;;;;5018417;28;20038;-70
2021/05/20 07:02:16;;;;;;;1.42;1.08;;;21.40;58.40;;;;;;5018186;28;20077;-70
2021/05/20 07:04:42;;;;;;;5.07;1.38;;;21.50;57.90;;;;;;5018274;28;20026;-70
2021/05/20 07:07:07;;;;;;;3.67;0.90;;;21.50;57.80;;;;;;5018291;28;20033;-70
2021/05/20 07:09:36;;;;;;;2.00;0.90;;;21.30;59.70;;;;;;5018194;28;20101;-70
2021/05/20 07:12:02;;;;;;;2.40;0.95;;;21.70;57.80;;;;;;5017892;28;20033;-70
2021/05/20 07:14:28;;;;;;;2.42;1.02;;;21.70;57.40;;;;;;5017677;28;20422;-70
2021/05/20 07:16:53;;;;;;;2.17;1.00;;;21.70;57.80;;;;;;5017781;28;20022;-70
2021/05/20 07:19:20;;;;;;;1.58;1.10;;;21.80;58.20;;;;;;5018097;28;20033;-70
2021/05/20 07:21:46;;;;;;;3.33;0.90;;;22.10;57.40;;;;;;5017992;28;20018;-70
2021/05/20 07:24:12;;;;;;;2.55;1.30;;;22.30;55.60;;;;;;5017558;28;20076;-70
2021/05/20 07:26:38;;;;;;;1.75;1.42;;;22.10;55.00;;;;;;5017978;28;20034;-70
2021/05/20 07:29:05;;;;;;;2.08;1.40;;;22.20;56.00;;;;;;5017624;28;20410;-70
2021/05/20 07:31:32;;;;;;;2.67;1.80;;;22.40;56.10;;;;;;5017514;28;20091;-70
2021/05/20 07:33:57;;;;;;;1.98;1.23;;;22.50;55.80;;;;;;5017506;28;20494;-70
2021/05/20 07:36:23;;;;;;;4.95;1.83;;;22.50;57.30;;;;;;5017407;28;20109;-71
2021/05/20 07:38:49;;;;;;;5.55;1.83;;;22.30;56.90;;;;;;5017707;28;20028;-70
2021/05/20 07:41:16;;;;;;;1.85;1.60;;;22.30;59.30;;;;;;5017002;28;20030;-70
2021/05/20 07:43:42;;;;;;;2.50;1.77;;;22.70;56.50;;;;;;5017688;28;20022;-70
2021/05/20 07:46:09;;;;;;;2.58;2.17;;;23.10;57.60;;;;;;5017549;28;20053;-70
2021/05/20 07:48:35;;;;;;;2.80;1.65;;;22.90;55.70;;;;;;5017251;28;20429;-70
2021/05/20 07:51:02;;;;;;;3.30;1.92;;;22.80;57.80;;;;;;5017515;28;20060;-70
2021/05/20 07:53:28;;;;;;;6.10;1.98;;;23.00;56.60;;;;;;5017248;28;20029;-70
2021/05/20 07:55:54;;;;;;;2.80;1.77;;;23.30;57.40;;;;;;5017544;28;20088;-70
2021/05/20 07:58:20;;;;;;;2.47;1.75;;;23.10;56.30;;;;;;5017425;28;20039;-70
2021/05/20 08:00:46;;;;;;;2.58;1.83;;;23.00;57.70;;;;;;5017103;28;20033;-70
2021/05/20 08:05:49;;;;;;;3.92;2.38;;;22.30;60.60;;;;;;5016998;28;20121;-70
2021/05/20 08:08:32;;;;;;;4.68;2.60;;;22.80;58.60;;;;;;5017344;28;20037;-70
2021/05/20 08:11:03;;;;;;;3.83;2.65;;;22.90;58.30;;;;;;5017256;28;20037;-70
2021/05/20 08:13:30;;;;;;;4.85;2.70;;;22.50;58.70;;;;;;5016989;28;20060;-70
2021/05/20 08:15:56;;;;;;;4.45;2.80;;;22.60;61.70;;;;;;5016757;28;20030;-70
2021/05/20 08:18:22;;;;;;;3.75;2.55;;;22.70;63.20;;;;;;5017177;28;20021;-70
2021/05/20 08:20:48;;;;;;;5.25;2.53;;;22.90;59.20;;;;;;5017178;28;20410;-70
2021/05/20 08:23:13;;;;;;;6.60;3.28;;;23.00;60.40;;;;;;5017179;28;20288;-70
2021/05/20 08:25:39;;;;;;;4.78;2.55;;;22.90;58.40;;;;;;5017180;28;20029;-71
2021/05/20 08:28:05;;;;;;;3.92;2.58;;;23.10;59.10;;;;;;5016839;28;20057;-71
2021/05/20 08:30:31;;;;;;;7.32;3.00;;;23.20;57.90;;;;;;5017039;28;20105;-71
2021/05/20 08:32:57;;;;;;;4.72;3.10;;;23.20;58.30;;;;;;5016788;28;20357;-71
2021/05/20 08:35:23;;;;;;;6.03;3.13;;;22.90;59.30;;;;;;5016957;28;20080;-71
2021/05/20 08:37:49;;;;;;;4.13;2.47;;;23.00;58.90;;;;;;5016691;28;20026;-71
2021/05/20 08:40:17;;;;;;;3.53;2.38;;;23.40;58.80;;;;;;5016980;28;20025;-71
2021/05/20 08:42:43;;;;;;;3.22;2.50;;;23.70;61.00;;;;;;5016998;28;20014;-71
2021/05/20 08:45:20;;;;;;;3.17;2.20;;;23.60;60.50;;;;;;5016893;28;20026;-71
2021/05/20 08:47:49;;;;;;;4.35;2.22;;;23.50;61.50;;;;;;5016945;28;20034;-71
2021/05/20 08:50:16;;;;;;;2.47;2.00;;;23.70;59.80;;;;;;5015960;28;20040;-71
2021/05/20 08:52:43;;;;;;;2.30;1.88;;;23.80;58.90;;;;;;5016943;28;20029;-71
2021/05/20 08:55:13;;;;;;;2.65;1.88;;;23.90;59.40;;;;;;5020098;28;20066;-71
2021/05/20 08:57:39;;;;;;;3.47;1.90;;;23.90;56.10;;;;;;5020687;28;20026;-71
2021/05/20 09:00:08;;;;;;;3.58;1.75;;;24.10;57.00;;;;;;5020638;28;20079;-71
2021/05/20 09:02:34;;;;;;;6.72;1.63;;;24.30;56.80;;;;;;5020357;28;20295;-71
2021/05/20 09:05:07;;;;;;;4.35;1.70;;;24.60;56.80;;;;;;5035681;28;20088;-71
2021/05/20 09:07:36;;;;;;;6.40;1.95;;;24.60;56.10;;;;;;5020236;28;20160;-71
2021/05/20 09:10:14;;;;;;;2.85;1.25;;;24.90;55.70;;;;;;5020436;28;20030;-71
2021/05/20 09:12:40;;;;;;;2.78;1.40;;;25.00;57.60;;;;;;5020150;28;20036;-71
2021/05/20 09:15:27;;;;;;;4.18;1.60;;;24.70;56.60;;;;;;5020241;28;20034;-71
2021/05/20 09:18:02;;;;;;;5.90;1.35;;;24.40;55.90;;;;;;5020068;28;20029;-71
2021/05/20 09:20:27;;;;;;;2.50;1.40;;;24.50;56.20;;;;;;5019882;28;20026;-71
2021/05/20 09:23:08;;;;;;;5.55;1.60;;;24.30;55.40;;;;;;5020286;28;20029;-71
2021/05/20 09:25:36;;;;;;;3.45;1.23;;;24.20;56.80;;;;;;5020155;28;20042;-71
2021/05/20 09:28:03;;;;;;;6.38;1.52;;;24.30;57.10;;;;;;5019845;28;20073;-71
2021/05/20 09:30:30;;;;;;;3.17;1.20;;;24.30;51.70;;;;;;5019781;28;20038;-71
2021/05/20 09:32:59;;;;;;;4.00;1.17;;;24.50;53.80;;;;;;5019814;28;20053;-71
2021/05/20 09:35:26;;;;;;;3.50;1.15;;;25.00;53.10;;;;;;5019894;28;20037;-71
2021/05/20 09:37:55;;;;;;;2.00;0.73;;;25.00;52.70;;;;;;5019712;28;20022;-71
2021/05/20 09:40:26;;;;;;;2.03;0.70;;;25.10;50.20;;;;;;5019626;28;20044;-71
2021/05/20 09:42:53;;;;;;;1.00;0.60;;;25.10;52.40;;;;;;5019916;28;20099;-71
2021/05/20 09:45:21;;;;;;;1.10;0.60;;;25.00;49.10;;;;;;5019795;28;20030;-71
2021/05/20 09:47:48;;;;;;;3.05;1.00;;;25.30;50.70;;;;;;5019731;28;20026;-71
2021/05/20 09:50:20;;;;;;;2.05;0.70;;;25.10;47.60;;;;;;5019449;28;20034;-72
2021/05/20 09:52:46;;;;;;;1.85;0.57;;;24.90;53.10;;;;;;5019762;28;20026;-71
2021/05/20 09:55:28;;;;;;;1.55;0.50;;;25.00;51.90;;;;;;5019362;28;20064;-71
2021/05/20 09:57:56;;;;;;;2.03;0.60;;;25.10;51.40;;;;;;5019570;28;20362;-71
2021/05/20 10:00:24;;;;;;;2.28;0.73;;;25.00;51.20;;;;;;5019560;28;20363;-71
2021/05/20 10:03:05;;;;;;;1.60;0.80;;;25.10;50.00;;;;;;5019191;28;20054;-71
2021/05/20 10:05:39;;;;;;;1.67;0.90;;;25.20;50.80;;;;;;5019157;28;20030;-71
2021/05/20 10:08:16;;;;;;;1.90;0.70;;;25.20;53.30;;;;;;5019160;28;20033;-71
2021/05/20 10:10:45;;;;;;;4.63;0.73;;;25.00;51.40;;;;;;5019334;28;20303;-71
2021/05/20 10:13:13;;;;;;;2.25;0.70;;;25.10;51.20;;;;;;5034505;28;20062;-71
2021/05/20 10:15:40;;;;;;;2.22;0.55;;;24.60;51.50;;;;;;5021151;28;20033;-71
2021/05/20 10:18:21;;;;;;;3.15;0.80;;;24.30;52.60;;;;;;5029664;28;20038;-71
2021/05/20 10:20:49;;;;;;;3.17;0.75;;;23.70;50.40;;;;;;5018837;28;20416;-71
2021/05/20 10:23:17;;;;;;;2.38;0.90;;;23.00;54.10;;;;;;5018090;28;20029;-71
2021/05/20 10:25:45;;;;;;;3.70;1.17;;;22.90;51.90;;;;;;5019111;28;20030;-71
2021/05/20 10:28:12;;;;;;;3.85;1.10;;;22.00;53.50;;;;;;5018690;28;20077;-71
2021/05/20 10:30:41;;;;;;;1.98;1.02;;;21.50;55.10;;;;;;5018616;28;20117;-71
2021/05/20 10:33:08;;;;;;;3.28;1.42;;;20.90;61.80;;;;;;5018655;28;20032;-71
2021/05/20 10:35:45;;;;;;;3.63;1.55;;;20.50;64.80;;;;;;5018469;28;20030;-71
2021/05/20 10:38:16;;;;;;;2.90;1.55;;;20.50;64.80;;;;;;5018879;28;20037;-71
2021/05/20 10:40:42;;;;;;;2.38;1.30;;;21.40;62.90;;;;;;5018489;28;20022;-71
2021/05/20 10:43:10;;;;;;;3.30;1.80;;;22.40;62.10;;;;;;5018748;28;20102;-71
2021/05/20 10:45:38;;;;;;;6.00;1.80;;;23.20;56.00;;;;;;5018636;28;20401;-71
2021/05/20 10:48:04;;;;;;;2.88;1.85;;;23.90;60.50;;;;;;5018310;28;20018;-71
2021/05/20 10:50:54;;;;;;;3.97;2.38;;;24.30;53.20;;;;;;5018269;28;20045;-71
2021/05/20 10:53:41;;;;;;;4.35;2.30;;;24.00;56.20;;;;;;5018577;28;20034;-71
2021/05/20 10:56:22;;;;;;;3.33;2.00;;;22.70;57.80;;;;;;5018464;28;20127;-71
2021/05/20 10:58:48;;;;;;;4.35;2.05;;;21.90;60.20;;;;;;5018478;28;20029;-71
2021/05/20 11:01:35;;;;;;;3.00;1.92;;;21.30;61.60;;;;;;5018051;28;20022;-71
2021/05/20 11:04:05;;;;;;;6.93;2.97;;;20.60;61.50;;;;;;5017384;28;20359;-71
2021/05/20 11:06:49;;;;;;;2.25;2.00;;;20.00;63.40;;;;;;5018302;28;20038;-71
2021/05/20 11:09:15;;;;;;;3.20;2.33;;;19.50;67.90;;;;;;5017968;28;20062;-71
2021/05/20 11:11:40;;;;;;;5.03;2.97;;;19.10;68.50;;;;;;5018203;28;20373;-71
2021/05/20 11:14:12;;;;;;;6.20;2.90;;;18.90;70.10;;;;;;5018156;28;21436;-71
2021/05/20 11:16:39;;;;;;;4.55;2.08;;;18.70;70.00;;;;;;5017112;28;20034;-71
2021/05/20 11:19:16;;;;;;;3.00;2.20;;;18.40;70.90;;;;;;5018088;28;20033;-71
2021/05/20 11:22:04;;;;;;;3.65;2.20;;;18.40;69.60;;;;;;5017686;28;20033;-71
2021/05/20 11:24:32;;;;;;;7.30;2.88;;;18.30;70.70;;;;;;5017681;28;20057;-71
2021/05/20 11:27:01;;;;;;;6.00;2.22;;;18.40;70.00;;;;;;5017650;28;20029;-71
2021/05/20 11:29:29;;;;;;;4.93;2.33;;;19.10;72.50;;;;;;5017483;28;20049;-71
2021/05/20 11:32:14;;;;;;;3.00;1.98;;;20.00;72.20;;;;;;5017549;28;20029;-71
2021/05/20 11:37:28;;;;;;;3.40;2.50;;;21.90;68.10;;;;;;5017902;28;20407;-71
2021/05/20 11:39:53;;;;;;;3.25;2.10;;;22.30;61.50;;;;;;5017475;28;20041;-71
2021/05/20 11:42:27;;;;;;;4.75;2.88;;;21.70;61.20;;;;;;5017770;28;20021;-71
2021/05/20 11:44:57;;;;;;;3.97;2.60;;;20.90;63.60;;;;;;5017313;28;20036;-71
2021/05/20 11:47:23;;;;;;;3.25;2.60;;;20.20;63.10;;;;;;5017286;28;20053;-71
2021/05/20 11:49:50;;;;;;;4.00;2.00;;;19.80;65.50;;;;;;5017595;28;20084;-71
2021/05/20 11:52:18;;;;;;;6.18;2.70;;;19.40;66.60;;;;;;5017294;28;20105;-71
2021/05/20 11:54:46;;;;;;;3.13;2.15;;;19.10;65.20;;;;;;5017186;28;20041;-71
2021/05/20 11:57:16;;;;;;;3.53;2.50;;;19.00;67.80;;;;;;5017436;28;20025;-71
2021/05/20 11:59:49;;;;;;;3.28;1.95;;;18.90;70.30;;;;;;5017445;28;20022;-71
2021/05/20 12:02:16;;;;;;;3.40;2.40;;;18.70;71.70;;;;;;5017409;28;20026;-71
2021/05/20 12:04:42;;;;;;;4.65;2.03;;;18.60;71.40;;;;;;5016963;28;20030;-71
2021/05/20 12:07:20;;;;;;;4.38;1.88;;;18.30;71.40;;;;;;5017352;28;20356;-71
2021/05/20 12:09:46;;;;;;;6.07;1.80;;;17.90;72.20;;;;;;5017368;28;20359;-71
2021/05/20 12:12:13;;;;;;;3.28;1.60;;;17.70;76.60;;;;;;5016997;28;20049;-71
2021/05/20 12:14:39;;;;;;;3.60;2.25;;;17.50;79.40;;;;;;5017083;28;20026;-70
2021/05/20 12:17:16;;;;;;;3.47;1.60;;;17.30;75.00;;;;;;5016940;28;20014;-70
2021/05/20 12:19:45;;;;;;;3.85;2.42;;;17.10;77.80;;;;;;5016815;28;20030;-70
2021/05/20 12:22:17;;;;;;;6.13;2.70;;;17.00;74.40;;;;;;5016878;28;20052;-70
2021/05/20 12:24:52;;;;;;;3.42;2.10;;;16.90;74.60;;;;;;5016860;28;20083;-70
2021/05/20 12:27:18;;;;;;;3.67;1.85;;;16.90;75.50;;;;;;5016950;28;20024;-71
2021/05/20 12:29:47;;;;;;;3.38;1.73;;;16.80;77.50;;;;;;5020883;28;20437;-70
2021/05/20 12:32:30;;;;;;;3.50;1.98;;;16.70;77.40;;;;;;5020828;28;20037;-70
2021/05/20 12:35:11;;;;;;;4.47;2.03;;;16.60;79.50;;;;;;5021024;28;20025;-72
2021/05/20 12:38:02;;;;;;;4.25;2.55;;;16.50;78.20;;;;;;5020747;28;20037;-70
2021/05/20 12:40:39;;;;;;;9.02;3.28;;;16.20;76.20;;;;;;5020293;28;20030;-70
2021/05/20 12:43:10;;;;;;;5.15;2.10;;;15.90;74.90;;;;;;5020736;28;20026;-72
2021/05/20 12:45:42;;;;;;;3.50;1.70;;;15.60;72.80;;;;;;5020560;28;20088;-72
2021/05/20 12:48:21;;;;;;;5.07;1.42;;;15.30;73.60;;;;;;5020942;28;20080;-72
2021/05/20 12:50:47;;;;;;;8.77;1.38;;;15.20;74.40;;;;;;5020839;28;20041;-72
2021/05/20 12:53:13;;;;;;;3.35;1.00;;;14.90;75.10;;;;;;5020570;28;20026;-72
2021/05/20 12:55:41;;;;;;;3.83;0.90;;;14.40;73.30;;;;;;5020351;28;20080;-72
2021/05/20 12:58:08;;;;;;;2.80;0.70;;;14.10;74.30;;;;;;5020724;28;20030;-72